sensor_id;sensor_type;location;lat;lon;timestamp;P1;durP1;ratioP1;P2;durP2;ratioP2
1436;SDS011;712;51.026;13.792;2024-03-07T00:00:22;39.63;;;16.00;;
1436;SDS011;712;51.026;13.792;2024-03-07T00:02:48;34.57;;;14.53;;
1436;SDS011;712;51.026;13.792;2024-03-07T00:05:14;34.17;;;15.02;;
1436;SDS011;712;51.026;13.792;2024-03-07T00:07:39;34.63;;;14.75;;
1436;SDS011;712;51.026;13.792;2024-03-07T00:10:05;37.97;;;15.32;;
1436;SDS011;712;51.026;13.792;2024-03-07T00:12:32;33.33;;;14.05;;
1436;SDS011;712;51.026;13.792;2024-03-07T00:14:57;37.85;;;16.15;;
1436;SDS011;712;51.026;13.792;2024-03-07T00:17:22;39.47;;;16.10;;
1436;SDS011;712;51.026;13.792;2024-03-07T00:19:48;33.43;;;15.00;;
1436;SDS011;712;51.026;13.792;2024-03-07T00:22:13;35.77;;;15.97;;
1436;SDS011;712;51.026;13.792;2024-03-07T00:24:39;35.38;;;15.77;;
1436;SDS011;712;51.026;13.792;2024-03-07T00:27:05;35.08;;;14.75;;
1436;SDS011;712;51.026;13.792;2024-03-07T00:29:30;43.22;;;16.88;;
1436;SDS011;712;51.026;13.792;2024-03-07T00:31:55;43.37;;;17.83;;
1436;SDS011;712;51.026;13.792;2024-03-07T00:34:20;41.50;;;15.27;;
1436;SDS011;712;51.026;13.792;2024-03-07T00:36:48;33.90;;;15.45;;
1436;SDS011;712;51.026;13.792;2024-03-07T00:39:13;41.67;;;16.00;;
1436;SDS011;712;51.026;13.792;2024-03-07T00:41:38;38.40;;;16.25;;
1436;SDS011;712;51.026;13.792;2024-03-07T00:44:04;45.25;;;18.40;;
1436;SDS011;712;51.026;13.792;2024-03-07T00:46:29;40.37;;;16.73;;
1436;SDS011;712;51.026;13.792;2024-03-07T00:48:54;37.93;;;17.43;;
1436;SDS011;712;51.026;13.792;2024-03-07T00:51:19;38.95;;;17.63;;
1436;SDS011;712;51.026;13.792;2024-03-07T00:53:45;37.50;;;16.33;;
1436;SDS011;712;51.026;13.792;2024-03-07T00:56:10;44.63;;;16.27;;
1436;SDS011;712;51.026;13.792;2024-03-07T00:58:35;35.40;;;16.15;;
1436;SDS011;712;51.026;13.792;2024-03-07T01:01:00;42.93;;;16.50;;
1436;SDS011;712;51.026;13.792;2024-03-07T01:03:26;37.67;;;16.33;;
1436;SDS011;712;51.026;13.792;2024-03-07T01:05:51;41.05;;;16.20;;
1436;SDS011;712;51.026;13.792;2024-03-07T01:08:17;44.35;;;18.35;;
1436;SDS011;712;51.026;13.792;2024-03-07T01:10:42;55.08;;;19.80;;
1436;SDS011;712;51.026;13.792;2024-03-07T01:13:08;41.10;;;17.25;;
1436;SDS011;712;51.026;13.792;2024-03-07T01:15:40;41.40;;;17.60;;
1436;SDS011;712;51.026;13.792;2024-03-07T01:18:05;35.47;;;15.75;;
1436;SDS011;712;51.026;13.792;2024-03-07T01:20:31;40.33;;;17.08;;
1436;SDS011;712;51.026;13.792;2024-03-07T01:22:57;35.90;;;15.95;;
1436;SDS011;712;51.026;13.792;2024-03-07T01:25:22;39.33;;;16.67;;
1436;SDS011;712;51.026;13.792;2024-03-07T01:27:47;39.00;;;16.13;;
1436;SDS011;712;51.026;13.792;2024-03-07T01:30:12;35.33;;;16.03;;
1436;SDS011;712;51.026;13.792;2024-03-07T01:32:38;35.50;;;15.98;;
1436;SDS011;712;51.026;13.792;2024-03-07T01:35:03;36.33;;;16.80;;
1436;SDS011;712;51.026;13.792;2024-03-07T01:37:32;41.30;;;17.00;;
1436;SDS011;712;51.026;13.792;2024-03-07T01:39:57;37.45;;;15.48;;
1436;SDS011;712;51.026;13.792;2024-03-07T01:42:23;32.25;;;15.07;;
1436;SDS011;712;51.026;13.792;2024-03-07T01:44:50;35.42;;;15.43;;
1436;SDS011;712;51.026;13.792;2024-03-07T01:47:16;37.17;;;16.50;;
1436;SDS011;712;51.026;13.792;2024-03-07T01:49:42;36.92;;;16.05;;
1436;SDS011;712;51.026;13.792;2024-03-07T01:52:07;39.13;;;16.80;;
1436;SDS011;712;51.026;13.792;2024-03-07T01:54:33;38.50;;;16.40;;
1436;SDS011;712;51.026;13.792;2024-03-07T01:56:58;40.05;;;16.02;;
1436;SDS011;712;51.026;13.792;2024-03-07T01:59:23;38.85;;;17.05;;
1436;SDS011;712;51.026;13.792;2024-03-07T02:01:49;41.35;;;18.08;;
1436;SDS011;712;51.026;13.792;2024-03-07T02:04:14;34.45;;;15.55;;
1436;SDS011;712;51.026;13.792;2024-03-07T02:06:40;36.08;;;15.85;;
1436;SDS011;712;51.026;13.792;2024-03-07T02:09:05;33.92;;;14.25;;
1436;SDS011;712;51.026;13.792;2024-03-07T02:11:31;33.13;;;15.05;;
1436;SDS011;712;51.026;13.792;2024-03-07T02:13:57;34.10;;;16.15;;
1436;SDS011;712;51.026;13.792;2024-03-07T02:16:22;34.17;;;15.27;;
1436;SDS011;712;51.026;13.792;2024-03-07T02:18:47;39.13;;;16.23;;
1436;SDS011;712;51.026;13.792;2024-03-07T02:21:13;34.65;;;14.43;;
1436;SDS011;712;51.026;13.792;2024-03-07T02:23:38;38.40;;;16.30;;
1436;SDS011;712;51.026;13.792;2024-03-07T02:26:03;36.30;;;16.30;;
1436;SDS011;712;51.026;13.792;2024-03-07T02:28:29;36.92;;;15.68;;
1436;SDS011;712;51.026;13.792;2024-03-07T02:30:54;38.15;;;15.10;;
1436;SDS011;712;51.026;13.792;2024-03-07T02:33:19;38.88;;;15.90;;
1436;SDS011;712;51.026;13.792;2024-03-07T02:35:44;36.23;;;15.77;;
1436;SDS011;712;51.026;13.792;2024-03-07T02:38:10;36.10;;;16.37;;
1436;SDS011;712;51.026;13.792;2024-03-07T02:40:35;35.63;;;16.05;;
1436;SDS011;712;51.026;13.792;2024-03-07T02:43:00;34.07;;;15.40;;
1436;SDS011;712;51.026;13.792;2024-03-07T02:45:28;36.22;;;15.23;;
1436;SDS011;712;51.026;13.792;2024-03-07T02:47:55;36.95;;;15.85;;
1436;SDS011;712;51.026;13.792;2024-03-07T02:50:20;35.00;;;15.60;;
1436;SDS011;712;51.026;13.792;2024-03-07T02:52:46;34.95;;;15.05;;
1436;SDS011;712;51.026;13.792;2024-03-07T02:55:12;46.05;;;17.02;;
1436;SDS011;712;51.026;13.792;2024-03-07T02:57:38;36.75;;;15.85;;
1436;SDS011;712;51.026;13.792;2024-03-07T03:00:03;30.80;;;15.00;;
1436;SDS011;712;51.026;13.792;2024-03-07T03:02:38;48.67;;;18.90;;
1436;SDS011;712;51.026;13.792;2024-03-07T03:05:03;36.40;;;17.87;;
1436;SDS011;712;51.026;13.792;2024-03-07T03:07:29;36.70;;;15.88;;
1436;SDS011;712;51.026;13.792;2024-03-07T03:09:54;39.50;;;17.70;;
1436;SDS011;712;51.026;13.792;2024-03-07T03:12:19;36.23;;;16.33;;
1436;SDS011;712;51.026;13.792;2024-03-07T03:14:48;42.63;;;17.02;;
1436;SDS011;712;51.026;13.792;2024-03-07T03:17:13;37.28;;;17.40;;
1436;SDS011;712;51.026;13.792;2024-03-07T03:19:39;37.57;;;16.50;;
1436;SDS011;712;51.026;13.792;2024-03-07T03:22:05;39.95;;;18.00;;
1436;SDS011;712;51.026;13.792;2024-03-07T03:24:30;38.00;;;16.65;;
1436;SDS011;712;51.026;13.792;2024-03-07T03:26:55;36.08;;;15.88;;
1436;SDS011;712;51.026;13.792;2024-03-07T03:29:20;36.53;;;16.08;;
1436;SDS011;712;51.026;13.792;2024-03-07T03:31:46;37.93;;;16.50;;
1436;SDS011;712;51.026;13.792;2024-03-07T03:34:11;38.65;;;17.20;;
1436;SDS011;712;51.026;13.792;2024-03-07T03:36:36;39.20;;;15.77;;
1436;SDS011;712;51.026;13.792;2024-03-07T03:39:01;40.80;;;16.77;;
1436;SDS011;712;51.026;13.792;2024-03-07T03:41:26;44.20;;;19.77;;
1436;SDS011;712;51.026;13.792;2024-03-07T03:43:52;41.50;;;17.77;;
1436;SDS011;712;51.026;13.792;2024-03-07T03:46:18;38.28;;;17.00;;
1436;SDS011;712;51.026;13.792;2024-03-07T03:48:43;39.20;;;16.45;;
1436;SDS011;712;51.026;13.792;2024-03-07T03:51:08;41.08;;;17.00;;
1436;SDS011;712;51.026;13.792;2024-03-07T03:53:34;42.95;;;16.92;;
1436;SDS011;712;51.026;13.792;2024-03-07T03:55:59;35.78;;;16.10;;
1436;SDS011;712;51.026;13.792;2024-03-07T03:58:25;39.07;;;17.13;;
1436;SDS011;712;51.026;13.792;2024-03-07T04:00:50;37.10;;;16.43;;
1436;SDS011;712;51.026;13.792;2024-03-07T04:03:16;37.00;;;16.85;;
1436;SDS011;712;51.026;13.792;2024-03-07T04:05:41;39.20;;;16.77;;
1436;SDS011;712;51.026;13.792;2024-03-07T04:08:06;37.60;;;15.85;;
1436;SDS011;712;51.026;13.792;2024-03-07T04:10:32;36.80;;;17.35;;
1436;SDS011;712;51.026;13.792;2024-03-07T04:12:57;34.20;;;15.67;;
1436;SDS011;712;51.026;13.792;2024-03-07T04:15:23;40.45;;;18.10;;
1436;SDS011;712;51.026;13.792;2024-03-07T04:17:51;38.78;;;16.25;;
1436;SDS011;712;51.026;13.792;2024-03-07T04:20:16;40.85;;;18.63;;
1436;SDS011;712;51.026;13.792;2024-03-07T04:22:42;42.25;;;18.42;;
1436;SDS011;712;51.026;13.792;2024-03-07T04:25:07;40.63;;;18.50;;
1436;SDS011;712;51.026;13.792;2024-03-07T04:27:33;34.15;;;15.75;;
1436;SDS011;712;51.026;13.792;2024-03-07T04:29:59;38.38;;;16.58;;
1436;SDS011;712;51.026;13.792;2024-03-07T04:32:24;37.00;;;16.70;;
1436;SDS011;712;51.026;13.792;2024-03-07T04:34:49;39.83;;;17.67;;
1436;SDS011;712;51.026;13.792;2024-03-07T04:37:15;40.27;;;16.73;;
1436;SDS011;712;51.026;13.792;2024-03-07T04:39:40;35.55;;;16.58;;
1436;SDS011;712;51.026;13.792;2024-03-07T04:42:05;35.77;;;17.47;;
1436;SDS011;712;51.026;13.792;2024-03-07T04:44:32;42.33;;;17.98;;
1436;SDS011;712;51.026;13.792;2024-03-07T04:46:58;45.30;;;19.27;;
1436;SDS011;712;51.026;13.792;2024-03-07T04:49:24;43.47;;;18.38;;
1436;SDS011;712;51.026;13.792;2024-03-07T04:51:50;39.17;;;19.05;;
1436;SDS011;712;51.026;13.792;2024-03-07T04:54:15;41.58;;;18.55;;
1436;SDS011;712;51.026;13.792;2024-03-07T04:56:41;43.38;;;19.65;;
1436;SDS011;712;51.026;13.792;2024-03-07T04:59:07;43.63;;;18.85;;
1436;SDS011;712;51.026;13.792;2024-03-07T05:01:32;38.57;;;16.80;;
1436;SDS011;712;51.026;13.792;2024-03-07T05:03:57;36.37;;;17.07;;
1436;SDS011;712;51.026;13.792;2024-03-07T05:06:22;35.70;;;17.40;;
1436;SDS011;712;51.026;13.792;2024-03-07T05:08:47;37.42;;;16.58;;
1436;SDS011;712;51.026;13.792;2024-03-07T05:11:12;37.55;;;17.38;;
1436;SDS011;712;51.026;13.792;2024-03-07T05:13:38;35.97;;;16.63;;
1436;SDS011;712;51.026;13.792;2024-03-07T05:16:03;37.97;;;18.10;;
1436;SDS011;712;51.026;13.792;2024-03-07T05:18:28;36.20;;;17.17;;
1436;SDS011;712;51.026;13.792;2024-03-07T05:20:54;33.50;;;16.75;;
1436;SDS011;712;51.026;13.792;2024-03-07T05:23:19;34.13;;;16.00;;
1436;SDS011;712;51.026;13.792;2024-03-07T05:25:44;34.67;;;15.20;;
1436;SDS011;712;51.026;13.792;2024-03-07T05:28:10;35.92;;;16.38;;
1436;SDS011;712;51.026;13.792;2024-03-07T05:30:36;30.90;;;15.02;;
1436;SDS011;712;51.026;13.792;2024-03-07T05:33:01;33.03;;;15.25;;
1436;SDS011;712;51.026;13.792;2024-03-07T05:35:27;36.90;;;16.10;;
1436;SDS011;712;51.026;13.792;2024-03-07T05:37:54;34.60;;;16.08;;
1436;SDS011;712;51.026;13.792;2024-03-07T05:40:21;35.15;;;16.95;;
1436;SDS011;712;51.026;13.792;2024-03-07T05:42:46;32.77;;;15.83;;
1436;SDS011;712;51.026;13.792;2024-03-07T05:45:11;36.43;;;16.23;;
1436;SDS011;712;51.026;13.792;2024-03-07T05:47:38;34.15;;;17.00;;
1436;SDS011;712;51.026;13.792;2024-03-07T05:50:04;35.33;;;16.17;;
1436;SDS011;712;51.026;13.792;2024-03-07T05:52:29;34.67;;;15.70;;
1436;SDS011;712;51.026;13.792;2024-03-07T05:54:54;30.70;;;14.20;;
1436;SDS011;712;51.026;13.792;2024-03-07T05:57:19;33.67;;;16.02;;
1436;SDS011;712;51.026;13.792;2024-03-07T05:59:44;34.30;;;16.03;;
1436;SDS011;712;51.026;13.792;2024-03-07T06:02:11;32.00;;;16.52;;
1436;SDS011;712;51.026;13.792;2024-03-07T06:04:40;37.25;;;16.50;;
1436;SDS011;712;51.026;13.792;2024-03-07T06:07:05;33.90;;;15.55;;
1436;SDS011;712;51.026;13.792;2024-03-07T06:09:30;32.42;;;15.80;;
1436;SDS011;712;51.026;13.792;2024-03-07T06:11:56;35.63;;;15.03;;
1436;SDS011;712;51.026;13.792;2024-03-07T06:14:21;33.77;;;16.17;;
1436;SDS011;712;51.026;13.792;2024-03-07T06:16:47;32.78;;;16.08;;
1436;SDS011;712;51.026;13.792;2024-03-07T06:19:13;34.63;;;15.53;;
1436;SDS011;712;51.026;13.792;2024-03-07T06:21:38;32.63;;;15.07;;
1436;SDS011;712;51.026;13.792;2024-03-07T06:24:07;35.70;;;15.13;;
1436;SDS011;712;51.026;13.792;2024-03-07T06:26:34;34.60;;;15.52;;
1436;SDS011;712;51.026;13.792;2024-03-07T06:29:05;35.40;;;15.80;;
1436;SDS011;712;51.026;13.792;2024-03-07T06:31:31;32.08;;;15.98;;
1436;SDS011;712;51.026;13.792;2024-03-07T06:33:56;34.42;;;16.38;;
1436;SDS011;712;51.026;13.792;2024-03-07T06:36:22;36.72;;;17.38;;
1436;SDS011;712;51.026;13.792;2024-03-07T06:38:47;33.73;;;15.97;;
1436;SDS011;712;51.026;13.792;2024-03-07T06:41:12;36.40;;;17.08;;
1436;SDS011;712;51.026;13.792;2024-03-07T06:43:38;35.85;;;16.45;;
1436;SDS011;712;51.026;13.792;2024-03-07T06:46:04;36.07;;;15.70;;
1436;SDS011;712;51.026;13.792;2024-03-07T06:48:29;37.13;;;16.40;;
1436;SDS011;712;51.026;13.792;2024-03-07T06:50:54;34.53;;;16.93;;
1436;SDS011;712;51.026;13.792;2024-03-07T06:53:19;34.33;;;16.20;;
1436;SDS011;712;51.026;13.792;2024-03-07T06:55:45;40.40;;;19.63;;
1436;SDS011;712;51.026;13.792;2024-03-07T06:58:10;36.40;;;19.03;;
1436;SDS011;712;51.026;13.792;2024-03-07T07:00:35;35.23;;;17.17;;
1436;SDS011;712;51.026;13.792;2024-03-07T07:03:01;37.70;;;18.70;;
1436;SDS011;712;51.026;13.792;2024-03-07T07:05:28;42.05;;;19.52;;
1436;SDS011;712;51.026;13.792;2024-03-07T07:07:53;42.70;;;20.08;;
1436;SDS011;712;51.026;13.792;2024-03-07T07:10:20;39.03;;;17.73;;
1436;SDS011;712;51.026;13.792;2024-03-07T07:12:49;37.20;;;16.67;;
1436;SDS011;712;51.026;13.792;2024-03-07T07:15:15;31.73;;;14.82;;
1436;SDS011;712;51.026;13.792;2024-03-07T07:17:41;29.75;;;14.20;;
1436;SDS011;712;51.026;13.792;2024-03-07T07:20:06;29.55;;;14.63;;
1436;SDS011;712;51.026;13.792;2024-03-07T07:22:35;29.15;;;14.60;;
1436;SDS011;712;51.026;13.792;2024-03-07T07:25:00;30.35;;;14.27;;
1436;SDS011;712;51.026;13.792;2024-03-07T07:27:25;34.07;;;16.00;;
1436;SDS011;712;51.026;13.792;2024-03-07T07:29:50;32.53;;;14.70;;
1436;SDS011;712;51.026;13.792;2024-03-07T07:32:16;33.05;;;14.55;;
1436;SDS011;712;51.026;13.792;2024-03-07T07:34:41;27.45;;;13.75;;
1436;SDS011;712;51.026;13.792;2024-03-07T07:37:07;29.65;;;13.13;;
1436;SDS011;712;51.026;13.792;2024-03-07T07:39:34;32.00;;;13.63;;
1436;SDS011;712;51.026;13.792;2024-03-07T07:41:59;25.77;;;11.73;;
1436;SDS011;712;51.026;13.792;2024-03-07T07:44:24;26.65;;;12.35;;
1436;SDS011;712;51.026;13.792;2024-03-07T07:46:49;25.88;;;11.75;;
1436;SDS011;712;51.026;13.792;2024-03-07T07:49:15;28.60;;;12.23;;
1436;SDS011;712;51.026;13.792;2024-03-07T07:51:41;30.02;;;12.40;;
1436;SDS011;712;51.026;13.792;2024-03-07T07:54:06;24.80;;;11.63;;
1436;SDS011;712;51.026;13.792;2024-03-07T07:56:34;24.38;;;12.07;;
1436;SDS011;712;51.026;13.792;2024-03-07T07:59:01;24.20;;;11.10;;
1436;SDS011;712;51.026;13.792;2024-03-07T08:01:26;27.17;;;11.70;;
1436;SDS011;712;51.026;13.792;2024-03-07T08:03:52;23.10;;;11.55;;
1436;SDS011;712;51.026;13.792;2024-03-07T08:06:17;23.55;;;10.85;;
1436;SDS011;712;51.026;13.792;2024-03-07T08:08:42;23.42;;;10.57;;
1436;SDS011;712;51.026;13.792;2024-03-07T08:11:07;21.17;;;9.57;;
1436;SDS011;712;51.026;13.792;2024-03-07T08:13:34;23.85;;;10.43;;
1436;SDS011;712;51.026;13.792;2024-03-07T08:16:00;22.58;;;10.48;;
1436;SDS011;712;51.026;13.792;2024-03-07T08:18:25;25.17;;;10.48;;
1436;SDS011;712;51.026;13.792;2024-03-07T08:20:51;19.83;;;9.93;;
1436;SDS011;712;51.026;13.792;2024-03-07T08:23:17;24.08;;;10.95;;
1436;SDS011;712;51.026;13.792;2024-03-07T08:25:42;21.57;;;10.80;;
1436;SDS011;712;51.026;13.792;2024-03-07T08:28:07;25.80;;;10.77;;
1436;SDS011;712;51.026;13.792;2024-03-07T08:30:33;20.38;;;10.25;;
1436;SDS011;712;51.026;13.792;2024-03-07T08:32:58;26.13;;;10.10;;
1436;SDS011;712;51.026;13.792;2024-03-07T08:35:31;20.15;;;9.18;;
1436;SDS011;712;51.026;13.792;2024-03-07T08:37:56;20.65;;;10.10;;
1436;SDS011;712;51.026;13.792;2024-03-07T08:40:29;21.77;;;9.57;;
1436;SDS011;712;51.026;13.792;2024-03-07T08:43:00;19.67;;;9.75;;
1436;SDS011;712;51.026;13.792;2024-03-07T08:45:26;21.00;;;9.93;;
1436;SDS011;712;51.026;13.792;2024-03-07T08:47:55;19.45;;;8.90;;
1436;SDS011;712;51.026;13.792;2024-03-07T08:50:21;20.83;;;9.73;;
1436;SDS011;712;51.026;13.792;2024-03-07T08:52:47;20.55;;;10.13;;
1436;SDS011;712;51.026;13.792;2024-03-07T08:55:13;18.70;;;9.57;;
1436;SDS011;712;51.026;13.792;2024-03-07T08:57:43;17.92;;;9.15;;
1436;SDS011;712;51.026;13.792;2024-03-07T09:00:11;17.67;;;8.77;;
1436;SDS011;712;51.026;13.792;2024-03-07T09:02:41;17.92;;;8.52;;
1436;SDS011;712;51.026;13.792;2024-03-07T09:05:07;16.45;;;7.68;;
1436;SDS011;712;51.026;13.792;2024-03-07T09:07:32;15.47;;;7.73;;
1436;SDS011;712;51.026;13.792;2024-03-07T09:09:57;16.87;;;8.17;;
1436;SDS011;712;51.026;13.792;2024-03-07T09:12:23;17.67;;;8.50;;
1436;SDS011;712;51.026;13.792;2024-03-07T09:14:50;13.80;;;6.70;;
1436;SDS011;712;51.026;13.792;2024-03-07T09:17:15;14.00;;;6.20;;
1436;SDS011;712;51.026;13.792;2024-03-07T09:19:41;13.43;;;6.28;;
1436;SDS011;712;51.026;13.792;2024-03-07T09:22:06;16.17;;;7.73;;
1436;SDS011;712;51.026;13.792;2024-03-07T09:24:33;15.27;;;7.50;;
1436;SDS011;712;51.026;13.792;2024-03-07T09:26:59;17.20;;;8.10;;
1436;SDS011;712;51.026;13.792;2024-03-07T09:29:24;14.33;;;7.40;;
1436;SDS011;712;51.026;13.792;2024-03-07T09:31:50;16.40;;;7.87;;
1436;SDS011;712;51.026;13.792;2024-03-07T09:34:17;15.82;;;7.53;;
1436;SDS011;712;51.026;13.792;2024-03-07T09:36:42;18.70;;;8.20;;
1436;SDS011;712;51.026;13.792;2024-03-07T09:39:07;15.43;;;8.00;;
1436;SDS011;712;51.026;13.792;2024-03-07T09:41:33;14.38;;;7.32;;
1436;SDS011;712;51.026;13.792;2024-03-07T09:43:59;18.10;;;8.63;;
1436;SDS011;712;51.026;13.792;2024-03-07T09:46:25;15.80;;;8.10;;
1436;SDS011;712;51.026;13.792;2024-03-07T09:48:50;15.43;;;8.07;;
1436;SDS011;712;51.026;13.792;2024-03-07T09:51:19;16.33;;;7.90;;
1436;SDS011;712;51.026;13.792;2024-03-07T09:53:44;20.05;;;8.75;;
1436;SDS011;712;51.026;13.792;2024-03-07T09:56:10;18.10;;;8.75;;
1436;SDS011;712;51.026;13.792;2024-03-07T09:58:38;16.38;;;8.70;;
1436;SDS011;712;51.026;13.792;2024-03-07T10:01:05;16.85;;;8.70;;
1436;SDS011;712;51.026;13.792;2024-03-07T10:03:34;15.95;;;8.95;;
1436;SDS011;712;51.026;13.792;2024-03-07T10:06:00;17.47;;;8.97;;
1436;SDS011;712;51.026;13.792;2024-03-07T10:08:25;18.92;;;9.10;;
1436;SDS011;712;51.026;13.792;2024-03-07T10:10:51;17.40;;;8.90;;
1436;SDS011;712;51.026;13.792;2024-03-07T10:13:17;21.67;;;9.75;;
1436;SDS011;712;51.026;13.792;2024-03-07T10:15:43;17.38;;;9.27;;
1436;SDS011;712;51.026;13.792;2024-03-07T10:18:08;18.55;;;9.68;;
1436;SDS011;712;51.026;13.792;2024-03-07T10:20:37;16.15;;;9.23;;
1436;SDS011;712;51.026;13.792;2024-03-07T10:23:04;18.42;;;9.82;;
1436;SDS011;712;51.026;13.792;2024-03-07T10:25:29;19.95;;;10.10;;
1436;SDS011;712;51.026;13.792;2024-03-07T10:27:54;19.20;;;10.67;;
1436;SDS011;712;51.026;13.792;2024-03-07T10:30:20;22.60;;;10.40;;
1436;SDS011;712;51.026;13.792;2024-03-07T10:32:46;19.17;;;10.70;;
1436;SDS011;712;51.026;13.792;2024-03-07T10:35:11;21.52;;;10.88;;
1436;SDS011;712;51.026;13.792;2024-03-07T10:37:39;20.98;;;10.52;;
1436;SDS011;712;51.026;13.792;2024-03-07T10:40:04;20.40;;;11.33;;
1436;SDS011;712;51.026;13.792;2024-03-07T10:42:40;20.35;;;10.60;;
1436;SDS011;712;51.026;13.792;2024-03-07T10:45:10;21.13;;;11.07;;
1436;SDS011;712;51.026;13.792;2024-03-07T10:47:36;19.65;;;10.57;;
1436;SDS011;712;51.026;13.792;2024-03-07T10:52:39;22.70;;;11.48;;
1436;SDS011;712;51.026;13.792;2024-03-07T10:55:09;23.85;;;11.00;;
1436;SDS011;712;51.026;13.792;2024-03-07T10:57:42;24.88;;;11.93;;
1436;SDS011;712;51.026;13.792;2024-03-07T11:00:09;23.50;;;12.15;;
1436;SDS011;712;51.026;13.792;2024-03-07T11:02:53;21.50;;;11.73;;
1436;SDS011;712;51.026;13.792;2024-03-07T11:05:20;22.73;;;12.27;;
1436;SDS011;712;51.026;13.792;2024-03-07T11:07:49;21.90;;;12.00;;
1436;SDS011;712;51.026;13.792;2024-03-07T11:10:14;20.35;;;10.65;;
1436;SDS011;712;51.026;13.792;2024-03-07T11:12:42;21.63;;;11.75;;
1436;SDS011;712;51.026;13.792;2024-03-07T11:15:08;22.30;;;12.07;;
1436;SDS011;712;51.026;13.792;2024-03-07T11:17:40;21.27;;;11.60;;
1436;SDS011;712;51.026;13.792;2024-03-07T11:20:22;24.17;;;12.10;;
1436;SDS011;712;51.026;13.792;2024-03-07T11:22:47;21.25;;;10.95;;
1436;SDS011;712;51.026;13.792;2024-03-07T11:25:12;22.10;;;11.52;;
1436;SDS011;712;51.026;13.792;2024-03-07T11:27:38;20.00;;;10.57;;
1436;SDS011;712;51.026;13.792;2024-03-07T11:30:07;24.80;;;11.23;;
1436;SDS011;712;51.026;13.792;2024-03-07T11:32:39;19.05;;;10.52;;
1436;SDS011;712;51.026;13.792;2024-03-07T11:35:11;24.20;;;11.23;;
1436;SDS011;712;51.026;13.792;2024-03-07T11:37:39;19.73;;;10.68;;
1436;SDS011;712;51.026;13.792;2024-03-07T11:40:58;23.58;;;11.93;;
1436;SDS011;712;51.026;13.792;2024-03-07T11:42:56;22.70;;;11.02;;
1436;SDS011;712;51.026;13.792;2024-03-07T11:45:24;22.05;;;10.60;;
1436;SDS011;712;51.026;13.792;2024-03-07T11:47:53;22.27;;;10.33;;
1436;SDS011;712;51.026;13.792;2024-03-07T11:50:25;20.75;;;10.88;;
1436;SDS011;712;51.026;13.792;2024-03-07T11:52:50;19.60;;;9.90;;
1436;SDS011;712;51.026;13.792;2024-03-07T11:55:16;22.55;;;11.20;;
1436;SDS011;712;51.026;13.792;2024-03-07T11:57:41;23.58;;;11.45;;
1436;SDS011;712;51.026;13.792;2024-03-07T12:00:09;18.92;;;10.20;;
1436;SDS011;712;51.026;13.792;2024-03-07T12:02:36;21.75;;;10.60;;
1436;SDS011;712;51.026;13.792;2024-03-07T12:05:02;22.83;;;10.40;;
1436;SDS011;712;51.026;13.792;2024-03-07T12:07:30;21.85;;;11.75;;
1436;SDS011;712;51.026;13.792;2024-03-07T12:09:55;23.20;;;11.83;;
1436;SDS011;712;51.026;13.792;2024-03-07T12:12:21;22.38;;;10.82;;
1436;SDS011;712;51.026;13.792;2024-03-07T12:14:47;20.25;;;10.60;;
1436;SDS011;712;51.026;13.792;2024-03-07T12:17:12;23.30;;;11.70;;
1436;SDS011;712;51.026;13.792;2024-03-07T12:19:39;20.55;;;10.35;;
1436;SDS011;712;51.026;13.792;2024-03-07T12:22:07;21.52;;;11.00;;
1436;SDS011;712;51.026;13.792;2024-03-07T12:24:37;22.48;;;10.77;;
1436;SDS011;712;51.026;13.792;2024-03-07T12:27:06;22.35;;;10.63;;
1436;SDS011;712;51.026;13.792;2024-03-07T12:29:31;21.75;;;11.23;;
1436;SDS011;712;51.026;13.792;2024-03-07T12:31:56;20.60;;;10.60;;
1436;SDS011;712;51.026;13.792;2024-03-07T12:34:21;23.85;;;10.57;;
1436;SDS011;712;51.026;13.792;2024-03-07T12:36:51;19.58;;;9.77;;
1436;SDS011;712;51.026;13.792;2024-03-07T12:39:21;21.15;;;10.18;;
1436;SDS011;712;51.026;13.792;2024-03-07T12:41:50;23.90;;;12.23;;
1436;SDS011;712;51.026;13.792;2024-03-07T12:44:18;21.05;;;11.52;;
1436;SDS011;712;51.026;13.792;2024-03-07T12:46:45;18.40;;;9.57;;
1436;SDS011;712;51.026;13.792;2024-03-07T12:49:11;18.75;;;9.88;;
1436;SDS011;712;51.026;13.792;2024-03-07T12:51:36;18.95;;;9.43;;
1436;SDS011;712;51.026;13.792;2024-03-07T12:54:01;17.40;;;9.10;;
1436;SDS011;712;51.026;13.792;2024-03-07T12:56:27;16.53;;;8.77;;
1436;SDS011;712;51.026;13.792;2024-03-07T12:58:52;19.30;;;9.77;;
1436;SDS011;712;51.026;13.792;2024-03-07T13:01:18;18.63;;;8.98;;
1436;SDS011;712;51.026;13.792;2024-03-07T13:03:44;19.35;;;10.15;;
1436;SDS011;712;51.026;13.792;2024-03-07T13:06:11;19.45;;;8.98;;
1436;SDS011;712;51.026;13.792;2024-03-07T13:08:37;19.77;;;9.67;;
1436;SDS011;712;51.026;13.792;2024-03-07T13:11:02;17.47;;;9.03;;
1436;SDS011;712;51.026;13.792;2024-03-07T13:13:27;21.40;;;9.30;;
1436;SDS011;712;51.026;13.792;2024-03-07T13:15:52;18.03;;;8.77;;
1436;SDS011;712;51.026;13.792;2024-03-07T13:18:19;18.67;;;9.23;;
1436;SDS011;712;51.026;13.792;2024-03-07T13:20:45;18.70;;;8.45;;
1436;SDS011;712;51.026;13.792;2024-03-07T13:23:11;18.77;;;8.25;;
1436;SDS011;712;51.026;13.792;2024-03-07T13:25:36;18.27;;;8.80;;
1436;SDS011;712;51.026;13.792;2024-03-07T13:30:32;17.67;;;8.55;;
1436;SDS011;712;51.026;13.792;2024-03-07T13:33:00;17.13;;;8.10;;
1436;SDS011;712;51.026;13.792;2024-03-07T13:35:27;16.23;;;8.57;;
1436;SDS011;712;51.026;13.792;2024-03-07T13:37:53;18.97;;;8.57;;
1436;SDS011;712;51.026;13.792;2024-03-07T13:40:24;18.27;;;8.32;;
1436;SDS011;712;51.026;13.792;2024-03-07T13:42:54;16.42;;;8.32;;
1436;SDS011;712;51.026;13.792;2024-03-07T13:45:29;17.08;;;8.23;;
1436;SDS011;712;51.026;13.792;2024-03-07T13:47:56;16.65;;;8.27;;
1436;SDS011;712;51.026;13.792;2024-03-07T13:52:49;16.17;;;8.07;;
1436;SDS011;712;51.026;13.792;2024-03-07T13:55:34;16.48;;;7.95;;
1436;SDS011;712;51.026;13.792;2024-03-07T13:58:04;16.38;;;8.45;;
1436;SDS011;712;51.026;13.792;2024-03-07T14:00:36;15.68;;;7.72;;
1436;SDS011;712;51.026;13.792;2024-03-07T14:03:17;16.85;;;8.50;;
1436;SDS011;712;51.026;13.792;2024-03-07T14:16:39;18.52;;;8.38;;
1436;SDS011;712;51.026;13.792;2024-03-07T14:22:03;18.10;;;8.95;;
1436;SDS011;712;51.026;13.792;2024-03-07T14:29:54;16.48;;;8.63;;
1436;SDS011;712;51.026;13.792;2024-03-07T14:32:23;16.38;;;8.00;;
1436;SDS011;712;51.026;13.792;2024-03-07T14:34:56;18.95;;;8.80;;
1436;SDS011;712;51.026;13.792;2024-03-07T14:37:27;17.65;;;8.93;;
1436;SDS011;712;51.026;13.792;2024-03-07T14:39:56;16.25;;;8.48;;
1436;SDS011;712;51.026;13.792;2024-03-07T14:42:34;19.50;;;8.77;;
1436;SDS011;712;51.026;13.792;2024-03-07T14:45:00;18.83;;;9.23;;
1436;SDS011;712;51.026;13.792;2024-03-07T14:47:25;24.08;;;9.13;;
1436;SDS011;712;51.026;13.792;2024-03-07T14:49:50;20.55;;;9.50;;
1436;SDS011;712;51.026;13.792;2024-03-07T14:52:16;20.15;;;9.10;;
1436;SDS011;712;51.026;13.792;2024-03-07T14:54:41;17.50;;;9.48;;
1436;SDS011;712;51.026;13.792;2024-03-07T14:57:07;18.52;;;9.23;;
1436;SDS011;712;51.026;13.792;2024-03-07T14:59:35;22.08;;;9.80;;
1436;SDS011;712;51.026;13.792;2024-03-07T15:02:00;17.50;;;9.00;;
1436;SDS011;712;51.026;13.792;2024-03-07T15:04:28;20.60;;;9.50;;
1436;SDS011;712;51.026;13.792;2024-03-07T15:06:56;18.35;;;9.25;;
1436;SDS011;712;51.026;13.792;2024-03-07T15:09:22;17.15;;;9.32;;
1436;SDS011;712;51.026;13.792;2024-03-07T15:11:47;18.52;;;8.07;;